Terminal Aerodrome Forecast
Issued by NWS

Home | Current Version | Previous Version | Text Only | Print | Product List | Glossary On
Versions: 1 2 3 4 5 6 7 8 9 10 11 12 13
000
FTUS46 KOTX 192322
TAFPUW
TAF
KPUW 192322Z 2000/2024 26014G22KT P6SM BKN080 BKN120 OVC200
     FM200200 24022G31KT P6SM SCT080
     FM201000 24012KT P6SM SCT080
     FM202000 23009G15KT P6SM SCT050 BKN090=

USA.gov is the U.S. government's official web portal to all federal, state and local government web resources and services.